Time;durP1;ratioP1;P1;durP2;ratioP2;P2;SDS_P1;SDS_P2;PMS_P1;PMS_P2;Temp;Humidity;BMP_temperature;BMP_pressure;BME280_temperature;BME280_humidity;BME280_pressure;Samples;Min_cycle;Max_cycle;Signal;HPM_P1;HPM_P2
2022/05/14 00:00:25;;;;;;;5.95;2.40;;;;;;;;;;5081811;28;19970;-71
2022/05/14 00:02:51;;;;;;;5.32;2.30;;;;;;;;;;5081304;28;20074;-71
2022/05/14 00:05:19;;;;;;;6.70;2.33;;;;;;;;;;5081229;28;20042;-71
2022/05/14 00:07:46;;;;;;;8.20;2.40;;;;;;;;;;5064968;28;20404;-71
2022/05/14 00:10:12;;;;;;;6.57;2.10;;;;;;;;;;5064896;28;20486;-71
2022/05/14 00:15:22;;;;;;;6.57;2.10;;;;;;;;;;5080442;28;20044;-71
2022/05/14 00:17:48;;;;;;;7.45;2.30;;;;;;;;;;5061292;28;20128;-71
2022/05/14 00:20:15;;;;;;;6.75;2.20;;;;;;;;;;5043469;28;20581;-71
2022/05/14 00:22:42;;;;;;;5.50;2.03;;;;;;;;;;5061140;28;20037;-71
2022/05/14 00:25:08;;;;;;;5.63;2.10;;;;;;;;;;5044298;28;20076;-71
2022/05/14 00:27:34;;;;;;;6.18;2.20;;;;;;;;;;5044206;28;20196;-71
2022/05/14 00:30:00;;;;;;;5.80;2.10;;;;;;;;;;5061258;28;20132;-71
2022/05/14 00:32:26;;;;;;;5.88;1.90;;;;;;;;;;5061217;28;20583;-71
2022/05/14 00:34:52;;;;;;;5.13;2.00;;;;;;;;;;5043850;28;20584;-71
2022/05/14 00:37:18;;;;;;;5.90;2.28;;;;;;;;;;5061058;28;20417;-71
2022/05/14 00:39:44;;;;;;;6.60;2.53;;;;;;;;;;5060936;28;20040;-71
2022/05/14 00:42:10;;;;;;;6.75;2.10;;;;;;;;;;5063245;28;20036;-71
2022/05/14 00:44:36;;;;;;;5.53;2.00;;;;;;;;;;5047537;28;20039;-71
2022/05/14 00:47:04;;;;;;;5.07;1.90;;;;;;;;;;5065232;28;20660;-71
2022/05/14 00:49:31;;;;;;;5.72;1.98;;;;;;;;;;5063473;28;20040;-71
2022/05/14 00:51:58;;;;;;;5.00;1.92;;;;;;;;;;5064843;28;20045;-71
2022/05/14 00:54:28;;;;;;;6.20;2.25;;;;;;;;;;5064645;28;20080;-71
2022/05/14 00:56:56;;;;;;;6.03;2.22;;;;;;;;;;5064565;28;20666;-71
2022/05/14 00:59:25;;;;;;;6.80;2.00;;;;;;;;;;5064554;28;20032;-71
2022/05/14 01:01:51;;;;;;;7.07;2.10;;;;;;;;;;5048302;28;20101;-71
2022/05/14 01:04:18;;;;;;;8.57;2.17;;;;;;;;;;5066700;28;20044;-71
2022/05/14 01:06:48;;;;;;;6.55;2.17;;;;;;;;;;5085009;28;20079;-71
2022/05/14 01:09:14;;;;;;;6.10;1.90;;;;;;;;;;5084508;28;20044;-71
2022/05/14 01:11:40;;;;;;;5.53;2.00;;;;;;;;;;5084559;28;20076;-71
2022/05/14 01:14:07;;;;;;;5.72;2.13;;;;;;;;;;5083912;28;20128;-71
2022/05/14 01:16:33;;;;;;;6.68;2.13;;;;;;;;;;5073805;28;20677;-71
2022/05/14 01:18:59;;;;;;;5.63;2.05;;;;;;;;;;5064270;28;20160;-71
2022/05/14 01:21:29;;;;;;;6.00;2.15;;;;;;;;;;5063707;28;20041;-71
2022/05/14 01:26:47;;;;;;;7.00;1.80;;;;;;;;;;5064253;28;20041;-71
2022/05/14 01:29:15;;;;;;;5.25;2.00;;;;;;;;;;5063485;28;20048;-71
2022/05/14 01:31:42;;;;;;;5.28;1.85;;;;;;;;;;5064240;28;20052;-71
2022/05/14 01:34:10;;;;;;;5.93;1.83;;;;;;;;;;5062782;28;20122;-71
2022/05/14 01:36:37;;;;;;;7.18;2.50;;;;;;;;;;5047182;28;20045;-71
2022/05/14 01:39:03;;;;;;;6.28;1.85;;;;;;;;;;5047178;28;20040;-71
2022/05/14 01:41:29;;;;;;;6.13;2.05;;;;;;;;;;5047277;28;20048;-71
2022/05/14 01:43:56;;;;;;;5.78;1.90;;;;;;;;;;5047297;28;20421;-71
2022/05/14 01:46:22;;;;;;;5.60;1.98;;;;;;;;;;5063941;28;20687;-71
2022/05/14 01:48:48;;;;;;;6.35;2.10;;;;;;;;;;5063612;28;20094;-71
2022/05/14 01:51:15;;;;;;;6.50;2.30;;;;;;;;;;5046590;28;20629;-71
2022/05/14 01:53:41;;;;;;;6.97;2.63;;;;;;;;;;5046205;28;20047;-69
2022/05/14 01:56:07;;;;;;;6.30;1.90;;;;;;;;;;5063499;28;20110;-71
2022/05/14 01:58:38;;;;;;;6.43;2.20;;;;;;;;;;5046627;28;20608;-71
2022/05/14 02:01:14;;;;;;;6.40;2.03;;;;;;;;;;5063753;28;20076;-71
2022/05/14 02:03:40;;;;;;;7.68;2.25;;;;;;;;;;5062140;28;20567;-71
2022/05/14 02:06:06;;;;;;;7.43;2.10;;;;;;;;;;5083405;28;20644;-71
2022/05/14 02:08:33;;;;;;;8.05;2.22;;;;;;;;;;5083897;28;20043;-71
2022/05/14 02:10:59;;;;;;;5.88;2.03;;;;;;;;;;5083698;28;20131;-71
2022/05/14 02:13:25;;;;;;;8.38;1.75;;;;;;;;;;5083232;28;20082;-71
2022/05/14 02:15:53;;;;;;;6.13;1.98;;;;;;;;;;5065169;28;20530;-71
2022/05/14 02:18:19;;;;;;;7.68;2.30;;;;;;;;;;5030359;28;20094;-71
2022/05/14 02:20:45;;;;;;;6.13;2.30;;;;;;;;;;5028404;28;20595;-70
2022/05/14 02:23:12;;;;;;;9.70;2.40;;;;;;;;;;5056146;28;20044;-71
2022/05/14 02:25:38;;;;;;;8.30;2.33;;;;;;;;;;5063131;28;20119;-71
2022/05/14 02:28:04;;;;;;;6.47;2.00;;;;;;;;;;5062240;28;20052;-71
2022/05/14 02:30:30;;;;;;;5.60;1.83;;;;;;;;;;5062969;28;20141;-71
2022/05/14 02:32:56;;;;;;;6.95;2.03;;;;;;;;;;5062582;28;20044;-71
2022/05/14 02:35:22;;;;;;;7.35;2.05;;;;;;;;;;5062121;28;20672;-71
2022/05/14 02:37:48;;;;;;;8.90;2.15;;;;;;;;;;5062810;28;20050;-71
2022/05/14 02:40:14;;;;;;;9.55;2.38;;;;;;;;;;5062596;28;20686;-71
2022/05/14 02:42:40;;;;;;;9.80;2.28;;;;;;;;;;5062781;28;20638;-71
2022/05/14 02:45:07;;;;;;;7.03;2.10;;;;;;;;;;5062472;28;20041;-71
2022/05/14 02:47:33;;;;;;;6.03;1.95;;;;;;;;;;5079664;28;20067;-71
2022/05/14 02:49:59;;;;;;;6.20;1.88;;;;;;;;;;5045591;28;20044;-71
2022/05/14 02:52:25;;;;;;;6.13;2.05;;;;;;;;;;5045919;28;20090;-71
2022/05/14 02:54:51;;;;;;;7.20;2.15;;;;;;;;;;5045946;28;20532;-71
2022/05/14 02:57:18;;;;;;;6.53;2.00;;;;;;;;;;5062189;28;20551;-71
2022/05/14 02:59:44;;;;;;;7.50;2.08;;;;;;;;;;5045770;28;20516;-71
2022/05/14 03:02:10;;;;;;;8.52;1.90;;;;;;;;;;5062457;28;20078;-71
2022/05/14 03:04:37;;;;;;;6.50;1.90;;;;;;;;;;5061474;28;20037;-71
2022/05/14 03:07:05;;;;;;;10.20;2.28;;;;;;;;;;5062192;28;20040;-71
2022/05/14 03:09:31;;;;;;;10.15;2.28;;;;;;;;;;5045209;28;20131;-71
2022/05/14 03:11:57;;;;;;;9.07;2.15;;;;;;;;;;5062227;28;20044;-71
2022/05/14 03:14:23;;;;;;;7.72;2.22;;;;;;;;;;5062128;28;20041;-71
2022/05/14 03:16:49;;;;;;;7.13;2.22;;;;;;;;;;5049542;28;20048;-71
2022/05/14 03:19:15;;;;;;;7.60;2.45;;;;;;;;;;5025144;28;20056;-71
2022/05/14 03:21:41;;;;;;;7.68;2.20;;;;;;;;;;5042292;28;20409;-71
2022/05/14 03:24:08;;;;;;;5.88;1.83;;;;;;;;;;5041411;28;20062;-71
2022/05/14 03:26:34;;;;;;;6.57;2.20;;;;;;;;;;5041905;28;20049;-71
2022/05/14 03:29:00;;;;;;;6.55;2.13;;;;;;;;;;5041426;28;20135;-71
2022/05/14 03:31:26;;;;;;;6.65;2.30;;;;;;;;;;5041584;28;20037;-71
2022/05/14 03:33:52;;;;;;;9.55;2.40;;;;;;;;;;5041378;28;20064;-71
2022/05/14 03:36:18;;;;;;;6.63;2.45;;;;;;;;;;5040831;28;20067;-70
2022/05/14 03:38:44;;;;;;;9.20;2.50;;;;;;;;;;5042099;28;20176;-71
2022/05/14 03:41:10;;;;;;;7.32;2.47;;;;;;;;;;5024406;28;20520;-71
2022/05/14 03:43:37;;;;;;;6.90;2.17;;;;;;;;;;5027805;28;20075;-71
2022/05/14 03:46:03;;;;;;;6.95;2.28;;;;;;;;;;5044865;28;20036;-71
2022/05/14 03:48:30;;;;;;;6.75;2.20;;;;;;;;;;5060520;28;20055;-71
2022/05/14 03:50:56;;;;;;;8.15;2.40;;;;;;;;;;5044749;28;20122;-71
2022/05/14 03:53:23;;;;;;;7.45;2.28;;;;;;;;;;5061469;28;20045;-71
2022/05/14 03:55:49;;;;;;;7.93;2.55;;;;;;;;;;5061664;28;20062;-71
2022/05/14 03:58:15;;;;;;;8.20;2.35;;;;;;;;;;5061708;28;20719;-70
2022/05/14 04:00:41;;;;;;;7.95;2.50;;;;;;;;;;5061496;28;20601;-71
2022/05/14 04:03:07;;;;;;;8.55;2.28;;;;;;;;;;5061855;28;20032;-71
2022/05/14 04:05:32;;;;;;;7.28;2.40;;;;;;;;;;5061617;28;20094;-71
2022/05/14 04:07:58;;;;;;;7.38;2.30;;;;;;;;;;5044408;28;20041;-71
2022/05/14 04:10:24;;;;;;;9.13;2.65;;;;;;;;;;5061697;28;20504;-71
2022/05/14 04:12:50;;;;;;;7.63;2.60;;;;;;;;;;5045114;28;20052;-71
2022/05/14 04:15:16;;;;;;;8.07;2.10;;;;;;;;;;5073752;28;20048;-71
2022/05/14 04:17:42;;;;;;;8.88;2.53;;;;;;;;;;5065024;28;20036;-71
2022/05/14 04:20:09;;;;;;;9.98;2.72;;;;;;;;;;5048274;28;20032;-70
2022/05/14 04:22:35;;;;;;;7.45;2.42;;;;;;;;;;5065293;28;20505;-70
2022/05/14 04:25:01;;;;;;;8.05;2.22;;;;;;;;;;5048748;28;20051;-70
2022/05/14 04:27:27;;;;;;;8.45;2.47;;;;;;;;;;5065137;28;20049;-71
2022/05/14 04:29:53;;;;;;;7.93;2.28;;;;;;;;;;5064995;28;20424;-71
2022/05/14 04:32:19;;;;;;;6.70;2.40;;;;;;;;;;5065119;28;20045;-70
2022/05/14 04:34:45;;;;;;;7.78;2.17;;;;;;;;;;5063482;28;20052;-70
2022/05/14 04:37:12;;;;;;;9.15;2.30;;;;;;;;;;5064954;28;20052;-70
2022/05/14 04:39:39;;;;;;;9.35;2.53;;;;;;;;;;5064836;28;20074;-70
2022/05/14 04:42:07;;;;;;;7.57;2.15;;;;;;;;;;5064742;28;20689;-70
2022/05/14 04:44:34;;;;;;;9.95;2.65;;;;;;;;;;5064429;28;20044;-70
2022/05/14 04:47:00;;;;;;;8.73;2.55;;;;;;;;;;5064984;28;20080;-70
2022/05/14 04:49:27;;;;;;;7.18;2.58;;;;;;;;;;5064267;28;20067;-70
2022/05/14 04:51:54;;;;;;;8.50;2.72;;;;;;;;;;5065269;28;20128;-70
2022/05/14 04:54:20;;;;;;;7.47;2.35;;;;;;;;;;5064970;28;20440;-70
2022/05/14 04:56:46;;;;;;;8.38;2.88;;;;;;;;;;5048079;28;20390;-70
2022/05/14 04:59:12;;;;;;;7.47;2.58;;;;;;;;;;5075762;28;20040;-70
2022/05/14 05:01:38;;;;;;;9.57;2.97;;;;;;;;;;5084831;28;20574;-70
2022/05/14 05:04:04;;;;;;;8.93;2.67;;;;;;;;;;5083562;28;20094;-71
2022/05/14 05:06:30;;;;;;;7.03;2.22;;;;;;;;;;5085202;28;20127;-70
2022/05/14 05:08:56;;;;;;;9.23;2.55;;;;;;;;;;5068195;28;20126;-70
2022/05/14 05:11:23;;;;;;;9.25;2.47;;;;;;;;;;5068204;28;20036;-70
2022/05/14 05:13:49;;;;;;;8.25;2.30;;;;;;;;;;5068228;28;20047;-70
2022/05/14 05:16:15;;;;;;;8.90;2.30;;;;;;;;;;5076462;28;20097;-70
2022/05/14 05:18:41;;;;;;;7.38;2.40;;;;;;;;;;5047409;28;20075;-70
2022/05/14 05:21:08;;;;;;;7.22;2.70;;;;;;;;;;5061355;28;20068;-71
2022/05/14 05:23:35;;;;;;;7.93;2.70;;;;;;;;;;5084613;28;20040;-71
2022/05/14 05:26:01;;;;;;;9.70;2.40;;;;;;;;;;5067108;28;20040;-71
2022/05/14 05:28:28;;;;;;;8.43;2.42;;;;;;;;;;5081818;28;20051;-71
2022/05/14 05:30:54;;;;;;;9.55;2.33;;;;;;;;;;5083185;28;20609;-71
2022/05/14 05:33:21;;;;;;;6.65;2.15;;;;;;;;;;5083300;28;20581;-70
2022/05/14 05:35:47;;;;;;;10.43;2.60;;;;;;;;;;5083730;28;20086;-71
2022/05/14 05:38:13;;;;;;;7.55;2.35;;;;;;;;;;5083857;28;20618;-70
2022/05/14 05:40:40;;;;;;;8.05;2.72;;;;;;;;;;5047546;28;20036;-70
2022/05/14 05:43:07;;;;;;;7.82;2.50;;;;;;;;;;5063290;28;20041;-71
2022/05/14 05:45:33;;;;;;;8.52;2.55;;;;;;;;;;5064664;28;20042;-71
2022/05/14 05:47:59;;;;;;;7.82;2.35;;;;;;;;;;5066923;28;20167;-71
2022/05/14 05:50:26;;;;;;;10.23;2.92;;;;;;;;;;5083695;28;20130;-70
2022/05/14 05:52:53;;;;;;;7.18;2.20;;;;;;;;;;5084833;28;20047;-71
2022/05/14 05:58:04;;;;;;;8.85;2.70;;;;;;;;;;5084406;28;20649;-71
2022/05/14 06:00:30;;;;;;;8.10;2.40;;;;;;;;;;5084139;28;20036;-70
2022/05/14 06:02:57;;;;;;;8.05;2.60;;;;;;;;;;5069582;28;20036;-71
2022/05/14 06:05:23;;;;;;;10.35;2.80;;;;;;;;;;5047884;28;20040;-71
2022/05/14 06:07:49;;;;;;;6.88;2.28;;;;;;;;;;5057790;28;20036;-71
2022/05/14 06:10:18;;;;;;;9.38;2.50;;;;;;;;;;5058416;28;20040;-71
2022/05/14 06:12:46;;;;;;;8.52;2.40;;;;;;;;;;5055116;28;20490;-71
2022/05/14 06:15:14;;;;;;;10.75;2.95;;;;;;;;;;5043028;28;20095;-70
2022/05/14 06:17:40;;;;;;;7.93;3.00;;;;;;;;;;5059228;28;20036;-71
2022/05/14 06:20:08;;;;;;;10.30;3.13;;;;;;;;;;5045285;28;20107;-71
2022/05/14 06:22:34;;;;;;;9.48;2.78;;;;;;;;;;5062557;28;20075;-71
2022/05/14 06:25:00;;;;;;;9.40;2.60;;;;;;;;;;5062929;28;20617;-70
2022/05/14 06:27:27;;;;;;;7.13;2.42;;;;;;;;;;5046584;28;20421;-71
2022/05/14 06:29:53;;;;;;;7.30;2.30;;;;;;;;;;5062788;28;20051;-70
2022/05/14 06:32:19;;;;;;;7.53;2.58;;;;;;;;;;5062608;28;20052;-71
2022/05/14 06:34:45;;;;;;;8.48;2.35;;;;;;;;;;5061537;28;20418;-71
2022/05/14 06:37:13;;;;;;;8.07;2.35;;;;;;;;;;5062197;28;20055;-71
2022/05/14 06:39:39;;;;;;;10.95;2.65;;;;;;;;;;5062221;28;20040;-71
2022/05/14 06:42:05;;;;;;;8.95;2.60;;;;;;;;;;5062578;28;20036;-70
2022/05/14 06:44:32;;;;;;;8.68;2.67;;;;;;;;;;5061548;28;20174;-70
2022/05/14 06:46:58;;;;;;;8.90;2.58;;;;;;;;;;5062596;28;20041;-71
2022/05/14 06:49:24;;;;;;;8.75;2.67;;;;;;;;;;5054543;28;20049;-71
2022/05/14 06:51:52;;;;;;;7.13;2.17;;;;;;;;;;5041430;28;20055;-71
2022/05/14 06:54:20;;;;;;;8.38;2.50;;;;;;;;;;5041789;28;20040;-71
2022/05/14 06:56:46;;;;;;;7.53;2.30;;;;;;;;;;5040746;28;20622;-71
2022/05/14 06:59:14;;;;;;;8.57;2.28;;;;;;;;;;5042641;28;20036;-71
2022/05/14 07:01:40;;;;;;;6.88;2.20;;;;;;;;;;5062181;28;20123;-71
2022/05/14 07:06:54;;;;;;;7.57;2.22;;;;;;;;;;5051100;28;20071;-71
2022/05/14 07:09:23;;;;;;;7.30;2.10;;;;;;;;;;5043465;28;20040;-71
2022/05/14 07:11:50;;;;;;;8.38;2.20;;;;;;;;;;5049315;28;20041;-70
2022/05/14 07:14:16;;;;;;;8.55;2.90;;;;;;;;;;5024818;28;20048;-70
2022/05/14 07:16:43;;;;;;;6.80;2.10;;;;;;;;;;5041078;28;20417;-70
2022/05/14 07:19:09;;;;;;;8.85;2.58;;;;;;;;;;5024341;28;20040;-70
2022/05/14 07:21:36;;;;;;;7.78;2.50;;;;;;;;;;5016989;28;20044;-70
2022/05/14 07:24:03;;;;;;;8.38;2.40;;;;;;;;;;5043610;28;20040;-70
2022/05/14 07:26:29;;;;;;;10.63;2.50;;;;;;;;;;5026594;28;20496;-70
2022/05/14 07:28:55;;;;;;;9.00;2.30;;;;;;;;;;5041288;28;20045;-70
2022/05/14 07:31:21;;;;;;;10.23;2.30;;;;;;;;;;5040331;28;20952;-70
2022/05/14 07:33:47;;;;;;;9.48;2.88;;;;;;;;;;5041126;28;20048;-70
2022/05/14 07:36:16;;;;;;;8.90;2.60;;;;;;;;;;5023885;28;20045;-70
2022/05/14 07:38:43;;;;;;;8.40;2.42;;;;;;;;;;5030286;28;20191;-69
2022/05/14 07:41:11;;;;;;;9.30;2.85;;;;;;;;;;5058064;28;20037;-70
2022/05/14 07:43:38;;;;;;;9.73;2.45;;;;;;;;;;5058100;28;20037;-70
2022/05/14 07:46:06;;;;;;;6.88;2.30;;;;;;;;;;5058038;28;20487;-70
2022/05/14 07:48:35;;;;;;;8.82;2.58;;;;;;;;;;5045569;28;21335;-70
2022/05/14 07:51:02;;;;;;;8.60;2.40;;;;;;;;;;5044569;28;20048;-69
2022/05/14 07:53:30;;;;;;;10.80;2.45;;;;;;;;;;5046048;28;20501;-69
2022/05/14 07:56:00;;;;;;;10.90;2.35;;;;;;;;;;5041986;28;20037;-69
2022/05/14 07:58:26;;;;;;;9.52;2.53;;;;;;;;;;5040415;28;20452;-69
2022/05/14 08:00:52;;;;;;;7.70;2.20;;;;;;;;;;5045101;28;20067;-69
2022/05/14 08:03:22;;;;;;;8.38;2.42;;;;;;;;;;5060305;28;20044;-70
2022/05/14 08:05:48;;;;;;;8.77;2.53;;;;;;;;;;5056671;28;20037;-70
2022/05/14 08:08:15;;;;;;;11.20;2.50;;;;;;;;;;5056523;28;20103;-70
2022/05/14 08:10:41;;;;;;;9.23;2.60;;;;;;;;;;5055883;28;20141;-71
2022/05/14 08:13:07;;;;;;;8.60;2.42;;;;;;;;;;5058944;28;20521;-70
2022/05/14 08:15:33;;;;;;;7.20;2.20;;;;;;;;;;5038083;28;20124;-70
2022/05/14 08:17:59;;;;;;;9.32;2.40;;;;;;;;;;5057155;28;20082;-70
2022/05/14 08:20:25;;;;;;;8.77;2.30;;;;;;;;;;5059444;28;20047;-69
2022/05/14 08:25:35;;;;;;;8.20;2.22;;;;;;;;;;5056699;28;20045;-70
2022/05/14 08:28:01;;;;;;;8.27;2.47;;;;;;;;;;5052104;28;20052;-70
2022/05/14 08:30:29;;;;;;;7.32;2.35;;;;;;;;;;5058899;28;20040;-70
2022/05/14 08:32:55;;;;;;;12.25;2.58;;;;;;;;;;5055692;28;20045;-70
2022/05/14 08:35:22;;;;;;;8.65;2.47;;;;;;;;;;5060410;28;20689;-70
2022/05/14 08:37:49;;;;;;;7.70;2.42;;;;;;;;;;5061417;28;20032;-70
2022/05/14 08:40:21;;;;;;;10.57;2.72;;;;;;;;;;5060941;28;20076;-70
2022/05/14 08:42:52;;;;;;;7.10;2.20;;;;;;;;;;5052149;28;20025;-70
2022/05/14 08:45:20;;;;;;;5.93;2.25;;;;;;;;;;5045555;28;20655;-70
2022/05/14 08:47:54;;;;;;;10.00;2.55;;;;;;;;;;5060649;28;20725;-70
2022/05/14 08:50:23;;;;;;;9.93;2.63;;;;;;;;;;5060421;28;20043;-69
2022/05/14 08:52:49;;;;;;;8.23;2.45;;;;;;;;;;5060328;28;20094;-70
2022/05/14 08:55:17;;;;;;;13.50;3.25;;;;;;;;;;5061186;28;20664;-70
2022/05/14 08:57:51;;;;;;;11.90;3.13;;;;;;;;;;5044351;28;20098;-70
2022/05/14 09:00:18;;;;;;;12.95;3.40;;;;;;;;;;5061177;28;20047;-70
2022/05/14 09:02:46;;;;;;;9.95;2.97;;;;;;;;;;5061191;28;20044;-70
2022/05/14 09:05:14;;;;;;;9.20;2.90;;;;;;;;;;5064226;28;20623;-70
2022/05/14 09:07:41;;;;;;;11.88;3.58;;;;;;;;;;5048307;28;20606;-70
2022/05/14 09:10:08;;;;;;;12.98;3.65;;;;;;;;;;5064447;28;20102;-70
2022/05/14 09:12:35;;;;;;;12.32;3.38;;;;;;;;;;5062721;28;20128;-70
2022/05/14 09:15:04;;;;;;;11.38;3.17;;;;;;;;;;5038072;28;20048;-70
2022/05/14 09:17:30;;;;;;;16.73;3.25;;;;;;;;;;5050354;28;20041;-70
2022/05/14 09:19:57;;;;;;;7.90;2.67;;;;;;;;;;5059649;28;20146;-70
2022/05/14 09:22:23;;;;;;;12.18;2.70;;;;;;;;;;5060157;28;20041;-70
2022/05/14 09:24:50;;;;;;;12.93;3.92;;;;;;;;;;5070086;28;20054;-70
2022/05/14 09:27:22;;;;;;;17.25;4.15;;;;;;;;;;5072850;28;20091;-70
2022/05/14 09:29:51;;;;;;;14.32;4.47;;;;;;;;;;5046233;28;20045;-70
2022/05/14 09:32:17;;;;;;;14.60;4.72;;;;;;;;;;5043948;28;20053;-70
2022/05/14 09:34:43;;;;;;;15.80;4.78;;;;;;;;;;5060556;28;20114;-70
2022/05/14 09:37:16;;;;;;;16.90;4.53;;;;;;;;;;5063847;28;20094;-70
2022/05/14 09:39:42;;;;;;;20.37;5.10;;;;;;;;;;5063814;28;20046;-70
2022/05/14 09:42:28;;;;;;;15.07;4.80;;;;;;;;;;5048262;28;20066;-70
2022/05/14 09:44:57;;;;;;;14.07;5.30;;;;;;;;;;5052834;28;20048;-70
2022/05/14 09:47:28;;;;;;;18.27;5.47;;;;;;;;;;5063556;28;20127;-70
2022/05/14 09:49:59;;;;;;;17.10;5.13;;;;;;;;;;5062062;28;20037;-70
2022/05/14 09:52:29;;;;;;;17.58;5.03;;;;;;;;;;5058532;28;20123;-70
2022/05/14 09:54:56;;;;;;;16.60;4.95;;;;;;;;;;5059118;28;20037;-70
2022/05/14 09:57:25;;;;;;;16.30;4.78;;;;;;;;;;5062840;28;20052;-70
2022/05/14 09:59:51;;;;;;;17.73;5.00;;;;;;;;;;5045729;28;20154;-70
2022/05/14 10:02:28;;;;;;;18.73;5.35;;;;;;;;;;5061249;28;20036;-70
2022/05/14 10:04:54;;;;;;;13.73;4.85;;;;;;;;;;5050304;28;20032;-70
2022/05/14 10:07:29;;;;;;;12.73;4.85;;;;;;;;;;5045166;28;20064;-70
2022/05/14 10:09:58;;;;;;;15.52;5.22;;;;;;;;;;5062619;28;20517;-70
2022/05/14 10:12:34;;;;;;;17.33;4.63;;;;;;;;;;5041674;28;20156;-70
2022/05/14 10:15:08;;;;;;;14.80;4.78;;;;;;;;;;5058209;28;20066;-70
2022/05/14 10:17:34;;;;;;;14.48;4.93;;;;;;;;;;5046722;28;20040;-70
2022/05/14 10:20:05;;;;;;;13.32;5.03;;;;;;;;;;5045427;28;20093;-70
2022/05/14 10:28:41;;;;;;;14.77;4.80;;;;;;;;;;5043237;28;20606;-70
2022/05/14 10:31:24;;;;;;;15.20;4.68;;;;;;;;;;5055761;28;20059;-70
2022/05/14 10:33:51;;;;;;;14.82;4.68;;;;;;;;;;5042023;28;20468;-70
2022/05/14 10:36:20;;;;;;;12.82;4.50;;;;;;;;;;5059746;28;20548;-70
2022/05/14 10:39:10;;;;;;;11.57;4.53;;;;;;;;;;5059402;28;20064;-70
2022/05/14 10:41:39;;;;;;;15.95;4.97;;;;;;;;;;5051279;28;20598;-70
2022/05/14 10:44:09;;;;;;;14.93;4.78;;;;;;;;;;5036008;28;20043;-70
2022/05/14 10:46:36;;;;;;;12.73;4.57;;;;;;;;;;5059234;28;20036;-70
2022/05/14 10:49:11;;;;;;;15.15;5.53;;;;;;;;;;5058484;28;20123;-70
2022/05/14 10:51:43;;;;;;;13.10;5.15;;;;;;;;;;5057605;28;20048;-70
2022/05/14 10:54:12;;;;;;;10.65;4.50;;;;;;;;;;5062122;28;20563;-70
2022/05/14 10:56:50;;;;;;;11.77;4.53;;;;;;;;;;5062482;28;20048;-70
2022/05/14 10:59:27;;;;;;;12.20;4.65;;;;;;;;;;5048361;28;20762;-70
2022/05/14 11:01:53;;;;;;;13.48;4.97;;;;;;;;;;5031516;28;20044;-70
2022/05/14 11:04:21;;;;;;;13.02;5.40;;;;;;;;;;5053843;28;20041;-70
2022/05/14 11:06:59;;;;;;;13.20;5.35;;;;;;;;;;5055655;28;20079;-70
2022/05/14 11:09:32;;;;;;;12.68;4.90;;;;;;;;;;5056338;28;20050;-70
2022/05/14 11:11:59;;;;;;;14.90;4.93;;;;;;;;;;5046082;28;20079;-70
2022/05/14 11:14:36;;;;;;;13.18;4.38;;;;;;;;;;5041613;28;20140;-70
2022/05/14 11:17:02;;;;;;;11.68;4.32;;;;;;;;;;5053942;28;20049;-70
2022/05/14 11:19:32;;;;;;;13.57;4.75;;;;;;;;;;5055891;28;20040;-70
2022/05/14 11:21:59;;;;;;;11.95;4.65;;;;;;;;;;5060347;28;20111;-70
2022/05/14 11:24:42;;;;;;;11.18;4.30;;;;;;;;;;5059755;28;20285;-70
2022/05/14 11:27:09;;;;;;;12.55;4.15;;;;;;;;;;5061547;28;20037;-70
2022/05/14 11:29:49;;;;;;;9.98;3.90;;;;;;;;;;5061696;28;20067;-70
2022/05/14 11:32:17;;;;;;;12.52;4.55;;;;;;;;;;5062337;28;20044;-70
2022/05/14 11:34:53;;;;;;;11.05;4.20;;;;;;;;;;5061895;28;20064;-70
2022/05/14 11:37:30;;;;;;;10.30;3.95;;;;;;;;;;5062135;28;20044;-70
2022/05/14 11:40:03;;;;;;;11.45;4.38;;;;;;;;;;5062288;28;20530;-70
2022/05/14 11:42:30;;;;;;;13.23;4.72;;;;;;;;;;5061981;28;20059;-70
2022/05/14 11:45:00;;;;;;;17.63;5.13;;;;;;;;;;5045037;28;20044;-70
2022/05/14 11:47:33;;;;;;;15.40;4.75;;;;;;;;;;5082024;28;20125;-70
2022/05/14 11:50:00;;;;;;;15.15;5.57;;;;;;;;;;5052446;28;20052;-70
2022/05/14 11:52:45;;;;;;;19.08;8.05;;;;;;;;;;5044888;28;20944;-70
2022/05/14 11:55:16;;;;;;;18.52;8.20;;;;;;;;;;5062184;28;20079;-70
2022/05/14 11:57:45;;;;;;;20.40;7.78;;;;;;;;;;5061884;28;20523;-70
2022/05/14 12:00:14;;;;;;;15.23;7.72;;;;;;;;;;5061672;28;20036;-70
2022/05/14 12:03:09;;;;;;;19.85;8.88;;;;;;;;;;5061791;28;20067;-70
2022/05/14 12:05:35;;;;;;;21.10;8.68;;;;;;;;;;5032849;28;20052;-70
2022/05/14 12:08:01;;;;;;;19.30;10.43;;;;;;;;;;5041493;28;20071;-70
2022/05/14 12:10:34;;;;;;;19.60;10.00;;;;;;;;;;5041998;28;20120;-70
2022/05/14 12:13:10;;;;;;;21.27;9.88;;;;;;;;;;5041824;28;20609;-70
2022/05/14 12:15:37;;;;;;;20.38;9.30;;;;;;;;;;5041308;28;20037;-70
2022/05/14 12:18:03;;;;;;;20.52;10.00;;;;;;;;;;5023928;28;20041;-69
2022/05/14 12:20:31;;;;;;;20.23;9.90;;;;;;;;;;5041783;28;20044;-69
2022/05/14 12:22:59;;;;;;;22.95;11.10;;;;;;;;;;5048038;28;20041;-71
2022/05/14 12:25:39;;;;;;;18.23;9.52;;;;;;;;;;5056696;28;20067;-71
2022/05/14 12:28:06;;;;;;;24.15;10.75;;;;;;;;;;5041082;28;20047;-71
2022/05/14 12:33:19;;;;;;;22.52;10.95;;;;;;;;;;5046877;28;20052;-71
2022/05/14 12:35:56;;;;;;;18.92;11.30;;;;;;;;;;5053815;28;20053;-71
2022/05/14 12:38:28;;;;;;;21.52;10.38;;;;;;;;;;5055242;28;20718;-71
2022/05/14 12:40:54;;;;;;;18.88;10.82;;;;;;;;;;5076443;28;20036;-71
2022/05/14 12:43:20;;;;;;;19.67;10.63;;;;;;;;;;5068317;28;20036;-71
2022/05/14 12:45:51;;;;;;;20.23;10.05;;;;;;;;;;5085374;28;20035;-71
2022/05/14 12:48:17;;;;;;;17.90;9.40;;;;;;;;;;5068652;28;20052;-71
2022/05/14 12:50:53;;;;;;;18.92;9.90;;;;;;;;;;5085273;28;20597;-70
2022/05/14 12:53:20;;;;;;;16.38;9.50;;;;;;;;;;5078018;28;20448;-71
2022/05/14 12:55:49;;;;;;;18.05;9.60;;;;;;;;;;5060848;28;20549;-71
2022/05/14 12:58:17;;;;;;;18.77;9.63;;;;;;;;;;5064610;28;20044;-71
2022/05/14 13:00:45;;;;;;;18.88;9.75;;;;;;;;;;5064701;28;20156;-71
2022/05/14 13:03:30;;;;;;;18.35;9.07;;;;;;;;;;5064657;28;20043;-71
2022/05/14 13:05:58;;;;;;;19.77;9.65;;;;;;;;;;5064855;28;20043;-71
2022/05/14 13:08:25;;;;;;;17.45;9.13;;;;;;;;;;5064942;28;20110;-71
2022/05/14 13:10:53;;;;;;;16.02;8.50;;;;;;;;;;5064754;28;20098;-71
2022/05/14 13:13:27;;;;;;;17.08;8.77;;;;;;;;;;5047018;28;20703;-71
2022/05/14 13:15:55;;;;;;;15.02;8.38;;;;;;;;;;5063106;28;20506;-71
2022/05/14 13:18:22;;;;;;;16.63;9.10;;;;;;;;;;5062946;28;20649;-71
2022/05/14 13:20:56;;;;;;;16.88;9.00;;;;;;;;;;5063469;28;20504;-71
2022/05/14 13:23:22;;;;;;;18.98;9.38;;;;;;;;;;5041826;28;20072;-71
2022/05/14 13:25:59;;;;;;;16.20;8.52;;;;;;;;;;5064422;28;20091;-71
2022/05/14 13:28:27;;;;;;;16.50;8.77;;;;;;;;;;5059382;28;20044;-70
2022/05/14 13:30:53;;;;;;;21.83;9.20;;;;;;;;;;5057439;28;20048;-70
2022/05/14 13:33:27;;;;;;;15.65;7.72;;;;;;;;;;5046960;28;20140;-71
2022/05/14 13:38:40;;;;;;;15.27;8.25;;;;;;;;;;5044226;28;19917;-71
2022/05/14 13:41:22;;;;;;;16.88;8.57;;;;;;;;;;5058822;28;20497;-71
2022/05/14 13:43:50;;;;;;;15.77;8.23;;;;;;;;;;5049372;28;20052;-73
2022/05/14 13:46:20;;;;;;;20.45;8.23;;;;;;;;;;5053670;28;20032;-70
2022/05/14 13:48:48;;;;;;;30.15;8.77;;;;;;;;;;5025880;28;20033;-70
2022/05/14 13:51:17;;;;;;;19.33;8.25;;;;;;;;;;5053785;28;20055;-71
2022/05/14 13:53:44;;;;;;;20.80;7.78;;;;;;;;;;5042918;28;20048;-71
2022/05/14 13:56:10;;;;;;;21.90;8.82;;;;;;;;;;5060672;28;20481;-71
2022/05/14 13:58:37;;;;;;;14.93;7.53;;;;;;;;;;5046653;28;20044;-70
2022/05/14 14:01:22;;;;;;;18.23;8.88;;;;;;;;;;5062748;28;20044;-71
2022/05/14 14:03:51;;;;;;;19.40;8.55;;;;;;;;;;5062630;28;20098;-71
2022/05/14 14:06:18;;;;;;;15.85;7.90;;;;;;;;;;5063191;28;20707;-70
2022/05/14 14:08:44;;;;;;;17.25;8.13;;;;;;;;;;5054461;28;20067;-70
2022/05/14 14:11:11;;;;;;;17.73;7.95;;;;;;;;;;5061345;28;20603;-71
2022/05/14 14:13:37;;;;;;;18.13;8.63;;;;;;;;;;5046192;28;20040;-71
2022/05/14 14:16:03;;;;;;;14.70;7.65;;;;;;;;;;5060199;28;20106;-71
2022/05/14 14:18:29;;;;;;;16.02;7.45;;;;;;;;;;5042589;28;20036;-71
2022/05/14 14:20:58;;;;;;;16.92;7.68;;;;;;;;;;5061267;28;21008;-71
2022/05/14 14:23:25;;;;;;;19.77;7.45;;;;;;;;;;5039004;28;20036;-71
2022/05/14 14:25:52;;;;;;;16.50;8.27;;;;;;;;;;5046064;28;20057;-71
2022/05/14 14:28:19;;;;;;;16.33;8.27;;;;;;;;;;5057727;28;20155;-80
2022/05/14 14:30:46;;;;;;;15.48;7.95;;;;;;;;;;5042689;28;20048;-79
2022/05/14 14:33:13;;;;;;;17.98;7.45;;;;;;;;;;5061392;28;20554;-80
2022/05/14 14:35:39;;;;;;;18.23;7.38;;;;;;;;;;5059787;28;20578;-80
2022/05/14 14:38:06;;;;;;;16.77;6.95;;;;;;;;;;5055238;28;20187;-80
2022/05/14 14:40:32;;;;;;;17.25;7.10;;;;;;;;;;5055878;28;20033;-80
2022/05/14 14:42:58;;;;;;;14.20;7.07;;;;;;;;;;5038765;28;20037;-80
2022/05/14 14:45:24;;;;;;;13.23;7.05;;;;;;;;;;5066151;28;20064;-80
2022/05/14 14:47:50;;;;;;;14.40;7.45;;;;;;;;;;5050941;28;20115;-80
2022/05/14 14:50:18;;;;;;;14.55;6.93;;;;;;;;;;5050727;28;20047;-81
2022/05/14 14:52:45;;;;;;;14.25;7.20;;;;;;;;;;5066828;28;20701;-80
2022/05/14 14:55:11;;;;;;;15.48;7.25;;;;;;;;;;5066186;28;20082;-79
2022/05/14 14:57:39;;;;;;;16.30;6.78;;;;;;;;;;5065051;28;20080;-80
2022/05/14 15:00:05;;;;;;;14.30;6.75;;;;;;;;;;5046536;28;20052;-80
2022/05/14 15:02:34;;;;;;;17.05;7.22;;;;;;;;;;5043740;28;20561;-80
2022/05/14 15:05:11;;;;;;;14.65;7.90;;;;;;;;;;5060088;28;20115;-81